Time;durP1;ratioP1;P1;durP2;ratioP2;P2;SDS_P1;SDS_P2;PMS_P1;PMS_P2;Temp;Humidity;BMP_temperature;BMP_pressure;BME280_temperature;BME280_humidity;BME280_pressure;Samples;Min_cycle;Max_cycle;Signal;HPM_P1;HPM_P2
2022/03/15 00:01:16;;;;;;;21.52;13.93;;;0.10;95.60;;;;;;5074254;28;20025;-96
2022/03/15 00:03:42;;;;;;;22.83;14.55;;;0.00;95.60;;;;;;5074461;28;20506;-96
2022/03/15 00:06:09;;;;;;;24.27;14.52;;;0.00;95.80;;;;;;5074215;28;20044;-96
2022/03/15 00:08:34;;;;;;;21.90;13.02;;;-0.10;95.70;;;;;;5074375;28;20124;-96
2022/03/15 00:11:05;;;;;;;22.67;14.50;;;-0.10;95.90;;;;;;5074151;28;20056;-96
2022/03/15 00:13:31;;;;;;;21.85;13.55;;;-0.10;95.90;;;;;;5074089;28;20017;-96
2022/03/15 00:15:59;;;;;;;21.15;12.80;;;-0.10;96.00;;;;;;5074173;28;20029;-95
2022/03/15 00:18:26;;;;;;;26.35;14.90;;;-0.10;96.10;;;;;;5074117;28;20024;-96
2022/03/15 00:20:51;;;;;;;27.33;13.75;;;-0.20;96.30;;;;;;5073978;28;20024;-96
2022/03/15 00:23:17;;;;;;;22.45;12.93;;;-0.20;96.20;;;;;;5075768;28;20024;-96
2022/03/15 00:25:44;;;;;;;25.85;14.20;;;-0.20;96.20;;;;;;5076390;28;20032;-96
2022/03/15 00:28:10;;;;;;;24.70;14.93;;;-0.20;96.20;;;;;;5080116;28;20040;-96
2022/03/15 00:30:36;;;;;;;23.08;12.63;;;-0.10;96.30;;;;;;5077545;28;20027;-96
2022/03/15 00:33:02;;;;;;;23.08;14.00;;;-0.10;96.40;;;;;;5081413;28;20025;-96
2022/03/15 00:35:27;;;;;;;23.20;13.30;;;-0.10;96.20;;;;;;5077470;28;20386;-96
2022/03/15 00:37:55;;;;;;;21.25;13.85;;;0.00;96.20;;;;;;5081402;28;20391;-96
2022/03/15 00:40:22;;;;;;;24.02;13.93;;;0.00;96.10;;;;;;5082016;28;20032;-96
2022/03/15 00:42:52;;;;;;;21.17;13.05;;;-0.10;96.10;;;;;;5083455;28;20092;-96
2022/03/15 00:45:19;;;;;;;22.40;13.90;;;-0.10;96.10;;;;;;5083550;28;20048;-96
2022/03/15 00:47:45;;;;;;;26.25;14.77;;;-0.10;96.20;;;;;;5079575;28;20360;-96
2022/03/15 00:50:19;;;;;;;23.98;14.23;;;-0.10;96.20;;;;;;5084633;28;20020;-96
2022/03/15 00:52:45;;;;;;;27.45;15.32;;;-0.10;96.20;;;;;;5084479;28;20027;-96
2022/03/15 00:55:11;;;;;;;26.25;14.63;;;-0.20;96.30;;;;;;5080963;28;20028;-96
2022/03/15 00:57:42;;;;;;;24.02;14.93;;;-0.20;96.40;;;;;;5079245;28;20029;-96
2022/03/15 01:00:11;;;;;;;24.15;14.25;;;-0.30;96.60;;;;;;5084682;28;20082;-96
2022/03/15 01:02:37;;;;;;;24.00;14.13;;;-0.30;96.60;;;;;;5083036;28;20119;-96
2022/03/15 01:05:04;;;;;;;26.30;15.73;;;-0.40;96.70;;;;;;5081362;28;20048;-95
2022/03/15 01:07:30;;;;;;;28.85;15.05;;;-0.50;97.00;;;;;;5076524;28;20075;-96
2022/03/15 01:10:02;;;;;;;27.67;15.63;;;-0.50;97.10;;;;;;5078075;28;20005;-96
2022/03/15 01:12:28;;;;;;;32.10;16.52;;;-0.50;97.10;;;;;;5070113;28;20029;-95
2022/03/15 01:14:57;;;;;;;22.00;13.95;;;-0.60;97.50;;;;;;5084630;28;20139;-96
2022/03/15 01:17:25;;;;;;;24.33;14.48;;;-0.60;97.40;;;;;;5085236;28;20062;-96
2022/03/15 01:20:00;;;;;;;22.85;14.10;;;-0.60;97.50;;;;;;5073999;28;20103;-96
2022/03/15 01:22:35;;;;;;;24.33;13.82;;;-0.60;97.60;;;;;;5069639;28;20040;-96
2022/03/15 01:25:01;;;;;;;26.83;14.38;;;-0.60;97.60;;;;;;5093263;28;20028;-96
2022/03/15 01:27:54;;;;;;;24.08;15.18;;;-0.60;97.60;;;;;;5092786;28;20025;-96
2022/03/15 01:30:23;;;;;;;25.40;14.70;;;-0.60;97.70;;;;;;5090688;28;20040;-96
2022/03/15 01:32:53;;;;;;;25.13;15.65;;;-0.60;97.60;;;;;;5092512;28;20024;-96
2022/03/15 01:35:24;;;;;;;25.20;14.98;;;-0.60;97.70;;;;;;5090635;28;20104;-96
2022/03/15 01:37:52;;;;;;;26.80;16.23;;;-0.60;97.90;;;;;;5091720;28;20029;-96
2022/03/15 01:40:18;;;;;;;25.02;14.85;;;-0.70;97.90;;;;;;5082565;28;20460;-96
2022/03/15 01:42:44;;;;;;;27.27;15.43;;;-0.70;98.00;;;;;;5083941;28;20160;-96
2022/03/15 01:45:11;;;;;;;25.67;15.77;;;-0.70;97.90;;;;;;5084565;28;20020;-96
2022/03/15 01:47:38;;;;;;;28.13;16.10;;;-0.70;98.00;;;;;;5088137;28;20025;-96
2022/03/15 01:50:07;;;;;;;28.13;15.23;;;-0.70;98.10;;;;;;5088684;28;20029;-96
2022/03/15 01:52:39;;;;;;;25.95;15.38;;;-0.70;98.30;;;;;;5056168;28;20049;-96
2022/03/15 01:55:08;;;;;;;23.42;14.30;;;-0.70;98.30;;;;;;5095315;28;20004;-96
2022/03/15 02:04:32;;;;;;;27.73;15.20;;;-0.70;98.60;;;;;;5075378;28;20055;-96
2022/03/15 02:07:21;;;;;;;27.67;14.57;;;-0.80;98.60;;;;;;5073874;28;20095;-96
2022/03/15 02:10:14;;;;;;;25.20;15.15;;;-0.80;98.60;;;;;;5061889;28;20029;-96
2022/03/15 02:12:40;;;;;;;26.83;15.27;;;-0.80;98.70;;;;;;5047137;28;20128;-96
2022/03/15 02:15:07;;;;;;;25.35;15.02;;;-0.80;98.70;;;;;;5045456;28;20065;-95
2022/03/15 02:17:34;;;;;;;25.10;15.60;;;-0.80;99.00;;;;;;5046698;28;20028;-95
2022/03/15 02:20:04;;;;;;;27.10;14.85;;;-0.80;99.00;;;;;;5043997;28;20029;-96
2022/03/15 02:22:30;;;;;;;;;;;-0.80;99.30;;;;;;5049206;28;20043;-96
2022/03/15 02:24:55;;;;;;;22.10;13.77;;;-0.80;99.30;;;;;;5047632;28;20177;-96
2022/03/15 02:27:23;;;;;;;28.67;15.88;;;-0.70;99.20;;;;;;5041056;28;20029;-96
2022/03/15 02:29:50;;;;;;;26.80;14.80;;;-0.70;99.20;;;;;;5040846;28;20039;-96
2022/03/15 02:32:15;;;;;;;27.67;14.57;;;-0.70;99.30;;;;;;5073537;28;20034;-96
2022/03/15 02:34:42;;;;;;;28.50;15.68;;;-0.70;99.30;;;;;;5076620;28;20093;-95
2022/03/15 02:37:08;;;;;;;25.10;15.07;;;-0.70;99.20;;;;;;5077412;28;20026;-95
2022/03/15 02:39:34;;;;;;;27.73;16.27;;;-0.70;99.50;;;;;;5080709;28;20020;-96
2022/03/15 02:42:00;;;;;;;25.73;14.82;;;-0.60;99.50;;;;;;5084834;28;20498;-96
2022/03/15 02:44:26;;;;;;;25.50;14.15;;;-0.60;99.40;;;;;;5084623;28;20107;-96
2022/03/15 02:46:52;;;;;;;26.98;15.30;;;-0.50;99.40;;;;;;5085064;28;20025;-96
2022/03/15 02:49:19;;;;;;;28.52;15.55;;;-0.40;99.40;;;;;;5085636;28;20028;-96
2022/03/15 02:51:45;;;;;;;25.35;15.13;;;-0.40;99.40;;;;;;5077379;28;20152;-96
2022/03/15 02:54:13;;;;;;;21.75;13.80;;;-0.40;99.40;;;;;;5077093;28;20025;-95
2022/03/15 02:56:42;;;;;;;25.38;14.90;;;-0.40;99.40;;;;;;5078214;28;20078;-95
2022/03/15 02:59:13;;;;;;;25.48;15.38;;;-0.30;99.30;;;;;;5077149;28;20077;-96
2022/03/15 03:01:39;;;;;;;24.38;13.80;;;-0.30;99.20;;;;;;5077481;28;20021;-95
2022/03/15 03:04:05;;;;;;;24.25;14.93;;;-0.30;99.10;;;;;;5077989;28;20107;-94
2022/03/15 03:06:31;;;;;;;25.58;14.98;;;-0.30;99.20;;;;;;5079978;28;20121;-95
2022/03/15 03:08:57;;;;;;;24.08;14.55;;;-0.30;99.20;;;;;;5076722;28;20519;-95
2022/03/15 03:11:23;;;;;;;26.58;15.18;;;-0.40;99.10;;;;;;5075939;28;20017;-95
2022/03/15 03:13:48;;;;;;;26.52;15.02;;;-0.40;99.10;;;;;;5080668;28;20052;-96
2022/03/15 03:16:15;;;;;;;28.92;16.13;;;-0.40;99.10;;;;;;5075692;28;20052;-95
2022/03/15 03:18:40;;;;;;;26.67;16.00;;;-0.40;99.10;;;;;;5078409;28;20024;-95
2022/03/15 03:21:07;;;;;;;30.00;16.30;;;-0.40;99.20;;;;;;5076900;28;20035;-96
2022/03/15 03:23:37;;;;;;;25.67;15.43;;;-0.40;99.20;;;;;;5075134;28;20024;-95
2022/03/15 03:26:03;;;;;;;;;;;-0.50;99.20;;;;;;5076323;28;20078;-95
2022/03/15 03:28:33;;;;;;;27.05;15.63;;;-0.50;99.30;;;;;;5075724;28;19904;-95
2022/03/15 03:31:00;;;;;;;30.00;17.00;;;-0.50;99.50;;;;;;5074842;28;20119;-96
2022/03/15 03:33:26;;;;;;;26.38;15.45;;;-0.50;99.50;;;;;;5074937;28;20035;-94
2022/03/15 03:35:52;;;;;;;26.88;14.50;;;-0.60;99.60;;;;;;5076411;28;20066;-95
2022/03/15 03:38:18;;;;;;;30.10;16.48;;;-0.60;99.70;;;;;;5076988;28;20020;-96
2022/03/15 03:40:44;;;;;;;30.25;17.38;;;-0.60;99.60;;;;;;5074942;28;20031;-96
2022/03/15 03:43:10;;;;;;;31.33;17.52;;;-0.60;99.60;;;;;;5075208;28;20111;-95
2022/03/15 03:45:36;;;;;;;29.75;16.95;;;-0.60;99.80;;;;;;5074812;28;20791;-94
2022/03/15 03:48:03;;;;;;;25.45;14.80;;;-0.70;99.70;;;;;;5077794;28;20028;-96
2022/03/15 03:50:28;;;;;;;27.33;16.98;;;-0.70;99.70;;;;;;5075838;28;20032;-95
2022/03/15 03:52:54;;;;;;;28.42;16.15;;;-0.70;99.70;;;;;;5074378;28;20078;-95
2022/03/15 03:55:20;;;;;;;29.88;17.00;;;-0.70;99.80;;;;;;5074377;28;20027;-95
2022/03/15 03:57:46;;;;;;;28.95;16.80;;;-0.70;99.90;;;;;;5074500;28;20024;-95
2022/03/15 04:00:12;;;;;;;26.65;15.70;;;-0.70;99.90;;;;;;5076416;28;20035;-96
2022/03/15 04:02:38;;;;;;;29.75;16.92;;;-0.70;99.90;;;;;;5075614;28;20062;-95
2022/03/15 04:05:04;;;;;;;27.05;16.23;;;-0.60;99.90;;;;;;5075117;28;20137;-95
2022/03/15 04:07:30;;;;;;;26.27;15.82;;;-0.60;99.90;;;;;;5074198;28;20067;-90
2022/03/15 04:09:56;;;;;;;27.55;15.40;;;-0.50;99.90;;;;;;5074122;28;20023;-89
2022/03/15 04:12:22;;;;;;;23.98;14.50;;;-0.50;99.90;;;;;;5071450;28;20035;-89
2022/03/15 04:14:48;;;;;;;26.08;15.15;;;-0.50;99.90;;;;;;5074208;28;20017;-89
2022/03/15 04:17:14;;;;;;;28.55;15.48;;;-0.50;99.90;;;;;;5073445;28;20029;-90
2022/03/15 04:19:41;;;;;;;28.70;15.18;;;-0.50;99.90;;;;;;5073814;28;20039;-89
2022/03/15 04:22:07;;;;;;;25.85;14.32;;;-0.40;99.90;;;;;;5073859;28;20118;-89
2022/03/15 04:24:33;;;;;;;28.13;16.65;;;-0.40;99.90;;;;;;5073822;28;20028;-89
2022/03/15 04:27:00;;;;;;;28.85;16.15;;;-0.40;99.90;;;;;;5073641;28;20024;-89
2022/03/15 04:29:29;;;;;;;27.77;16.05;;;-0.40;99.90;;;;;;5072633;28;20044;-90
2022/03/15 04:31:54;;;;;;;26.17;15.63;;;-0.40;99.90;;;;;;5068026;28;20024;-90
2022/03/15 04:34:20;;;;;;;22.85;14.45;;;-0.40;99.90;;;;;;5062064;28;20024;-90
2022/03/15 04:36:46;;;;;;;28.83;16.05;;;-0.40;99.90;;;;;;5064995;28;20028;-90
2022/03/15 04:39:12;;;;;;;24.23;15.15;;;-0.30;99.90;;;;;;5073307;28;20387;-90
2022/03/15 04:42:05;;;;;;;29.52;15.57;;;-0.30;99.90;;;;;;5084613;28;20009;-96
2022/03/15 04:45:19;;;;;;;31.52;17.08;;;-0.30;99.90;;;;;;5094472;28;20028;-96
2022/03/15 04:47:46;;;;;;;29.48;16.08;;;-0.20;99.90;;;;;;5075453;28;20031;-90
2022/03/15 04:50:12;;;;;;;28.35;16.50;;;-0.10;99.90;;;;;;5073248;28;20086;-90
2022/03/15 04:52:38;;;;;;;28.65;16.55;;;-0.10;99.90;;;;;;5073254;28;20021;-90
2022/03/15 04:55:06;;;;;;;27.48;16.45;;;-0.10;99.90;;;;;;5073364;28;20459;-90
2022/03/15 04:57:32;;;;;;;29.80;16.55;;;-0.10;99.90;;;;;;5072884;28;20050;-90
2022/03/15 04:59:57;;;;;;;28.17;16.55;;;0.00;99.90;;;;;;5073160;28;20467;-91
2022/03/15 05:02:24;;;;;;;27.48;16.20;;;0.00;99.80;;;;;;5073752;28;20032;-89
2022/03/15 05:04:51;;;;;;;27.33;16.58;;;0.10;99.90;;;;;;5073038;28;20059;-89
2022/03/15 05:07:17;;;;;;;28.42;16.67;;;0.20;99.70;;;;;;5072726;28;20053;-89
2022/03/15 05:12:37;;;;;;;30.60;17.30;;;0.20;99.50;;;;;;5037556;28;20030;-90
2022/03/15 05:15:04;;;;;;;32.05;16.73;;;0.30;99.60;;;;;;5074902;28;20043;-96
2022/03/15 05:17:31;;;;;;;29.13;16.48;;;0.40;99.50;;;;;;5080163;28;20028;-96
2022/03/15 05:19:59;;;;;;;25.95;16.20;;;0.40;99.40;;;;;;5078458;28;20025;-96
2022/03/15 05:22:24;;;;;;;32.60;18.08;;;0.50;99.40;;;;;;5063131;28;20162;-96
2022/03/15 05:24:50;;;;;;;31.52;16.95;;;0.60;99.10;;;;;;5077097;28;20045;-96
2022/03/15 05:27:16;;;;;;;29.55;16.60;;;0.70;99.00;;;;;;5060875;28;20040;-95
2022/03/15 05:29:59;;;;;;;28.58;17.20;;;0.80;99.00;;;;;;5082656;28;20025;-96
2022/03/15 05:32:27;;;;;;;29.35;16.63;;;0.80;98.60;;;;;;5081416;28;20020;-95
2022/03/15 05:34:54;;;;;;;26.40;16.05;;;0.90;98.60;;;;;;5077232;28;20024;-95
2022/03/15 05:37:25;;;;;;;27.33;15.43;;;1.00;98.50;;;;;;5084269;28;20505;-96
2022/03/15 05:39:51;;;;;;;26.80;16.30;;;1.00;98.50;;;;;;5076361;28;20035;-96
2022/03/15 05:42:19;;;;;;;27.35;16.00;;;1.00;98.40;;;;;;5087884;28;20032;-96
2022/03/15 05:44:47;;;;;;;31.05;16.98;;;1.10;98.40;;;;;;5089579;28;20045;-96
2022/03/15 05:47:17;;;;;;;29.23;15.93;;;1.10;98.30;;;;;;5092603;28;20028;-96
2022/03/15 05:49:43;;;;;;;29.33;16.27;;;1.20;98.10;;;;;;5076029;28;20021;-96
2022/03/15 05:52:11;;;;;;;27.25;16.48;;;1.30;98.10;;;;;;5087517;28;20085;-96
2022/03/15 05:54:37;;;;;;;29.30;16.85;;;1.30;97.80;;;;;;5081570;28;20033;-96
2022/03/15 05:57:03;;;;;;;32.65;17.30;;;1.30;97.80;;;;;;5075345;28;20495;-95
2022/03/15 05:59:29;;;;;;;28.08;16.45;;;1.40;97.80;;;;;;5073834;28;20032;-90
2022/03/15 06:01:59;;;;;;;27.65;16.55;;;1.40;97.70;;;;;;5065507;28;20046;-88
2022/03/15 06:04:26;;;;;;;112.50;50.28;;;1.50;97.60;;;;;;5065017;28;20067;-92
2022/03/15 06:06:55;;;;;;;68.05;30.55;;;1.50;97.50;;;;;;5067650;28;20041;-91
2022/03/15 06:09:24;;;;;;;67.20;35.72;;;1.60;97.30;;;;;;5067392;28;20013;-91
2022/03/15 06:11:52;;;;;;;59.25;33.67;;;1.60;97.20;;;;;;5075882;28;20020;-90
2022/03/15 06:14:19;;;;;;;34.05;19.77;;;1.70;97.50;;;;;;5076078;28;20031;-90
2022/03/15 06:16:45;;;;;;;30.60;17.58;;;1.70;97.00;;;;;;5075503;28;20024;-89
2022/03/15 06:19:11;;;;;;;31.77;16.23;;;1.80;96.90;;;;;;5076448;28;20028;-87
2022/03/15 06:21:36;;;;;;;31.38;17.45;;;1.80;97.00;;;;;;5062859;28;20093;-88
2022/03/15 06:24:02;;;;;;;25.58;15.80;;;1.90;96.90;;;;;;5071893;28;20418;-87
2022/03/15 06:26:29;;;;;;;28.85;17.88;;;1.90;96.90;;;;;;5056073;28;20493;-88
2022/03/15 06:28:55;;;;;;;30.95;17.95;;;1.90;96.90;;;;;;5071060;28;20032;-88
2022/03/15 06:31:23;;;;;;;30.73;17.02;;;1.90;96.60;;;;;;5071833;28;20522;-87
2022/03/15 06:33:49;;;;;;;31.50;17.20;;;2.00;96.60;;;;;;5071669;28;20472;-89
2022/03/15 06:36:15;;;;;;;29.55;16.75;;;2.00;96.40;;;;;;5071452;28;20034;-88
2022/03/15 06:38:41;;;;;;;32.90;15.93;;;2.10;96.50;;;;;;5070920;28;20036;-88
2022/03/15 06:41:11;;;;;;;30.20;15.90;;;2.10;96.20;;;;;;5071545;28;20047;-88
2022/03/15 06:43:39;;;;;;;30.73;16.95;;;2.20;96.30;;;;;;5071252;28;20021;-89
2022/03/15 06:46:08;;;;;;;31.83;16.67;;;2.20;96.20;;;;;;5071546;28;20457;-88
2022/03/15 06:48:36;;;;;;;27.70;16.42;;;2.20;96.30;;;;;;5054800;28;20502;-88
2022/03/15 06:51:06;;;;;;;31.80;16.65;;;2.30;96.20;;;;;;5037921;28;20060;-88
2022/03/15 06:53:32;;;;;;;29.80;17.25;;;2.30;96.20;;;;;;5055750;28;20021;-88
2022/03/15 06:55:58;;;;;;;31.20;18.48;;;2.30;96.20;;;;;;5071278;28;20095;-89
2022/03/15 06:58:24;;;;;;;31.75;17.95;;;2.40;96.00;;;;;;5070627;28;20502;-88
2022/03/15 07:00:50;;;;;;;27.95;15.95;;;2.50;95.80;;;;;;5054284;28;20029;-88
2022/03/15 07:03:16;;;;;;;39.30;21.05;;;2.50;95.90;;;;;;5071210;28;20025;-88
2022/03/15 07:05:43;;;;;;;39.17;22.23;;;2.50;95.80;;;;;;5054804;28;20029;-88
2022/03/15 07:08:09;;;;;;;35.38;20.10;;;2.60;96.00;;;;;;5054096;28;20075;-88
2022/03/15 07:10:35;;;;;;;39.78;20.98;;;2.60;96.00;;;;;;5054755;28;20017;-88
2022/03/15 07:13:01;;;;;;;29.10;17.45;;;2.60;95.60;;;;;;5054858;28;20025;-87
2022/03/15 07:15:28;;;;;;;47.28;25.15;;;2.70;95.60;;;;;;5055806;28;20025;-88
2022/03/15 07:17:56;;;;;;;35.30;20.65;;;2.70;95.60;;;;;;5071212;28;20059;-87
2022/03/15 07:20:23;;;;;;;29.95;16.60;;;2.70;95.50;;;;;;5070986;28;20021;-88
2022/03/15 07:22:50;;;;;;;39.90;24.05;;;2.80;95.50;;;;;;5071130;28;20107;-88
2022/03/15 07:25:17;;;;;;;31.02;18.88;;;2.90;95.50;;;;;;5054861;28;20040;-88
2022/03/15 07:27:43;;;;;;;45.13;28.02;;;2.90;95.20;;;;;;5054583;28;20025;-88
2022/03/15 07:30:09;;;;;;;39.78;24.13;;;3.00;95.20;;;;;;5071213;28;20021;-88
2022/03/15 07:32:36;;;;;;;33.15;19.75;;;3.00;95.10;;;;;;5055522;28;20464;-87
2022/03/15 07:35:03;;;;;;;44.72;23.67;;;3.10;95.10;;;;;;5070617;28;20025;-89
2022/03/15 07:37:28;;;;;;;30.30;17.77;;;3.10;95.00;;;;;;5071445;28;20031;-89
2022/03/15 07:39:54;;;;;;;31.17;18.63;;;3.20;95.20;;;;;;5070827;28;20028;-88
2022/03/15 07:42:21;;;;;;;27.52;16.80;;;3.20;95.20;;;;;;5071165;28;20025;-88
2022/03/15 07:44:47;;;;;;;32.53;18.13;;;3.30;95.00;;;;;;5070310;28;20036;-88
2022/03/15 07:47:14;;;;;;;26.50;16.08;;;3.30;94.90;;;;;;5070648;28;20430;-88
2022/03/15 07:49:40;;;;;;;24.38;14.73;;;3.40;94.90;;;;;;5054309;28;20420;-88
2022/03/15 07:52:06;;;;;;;26.42;16.17;;;3.40;94.70;;;;;;5070481;28;20142;-87
2022/03/15 07:54:33;;;;;;;27.35;16.63;;;3.50;94.60;;;;;;5070389;28;20025;-88
2022/03/15 07:57:01;;;;;;;35.15;19.55;;;3.50;94.60;;;;;;5070705;28;20047;-88
2022/03/15 07:59:29;;;;;;;40.17;20.05;;;3.60;94.70;;;;;;5070421;28;20025;-91
2022/03/15 08:01:54;;;;;;;65.88;29.42;;;3.60;94.60;;;;;;5070887;28;20063;-90
2022/03/15 08:04:20;;;;;;;54.50;27.20;;;3.60;94.70;;;;;;5053751;28;20032;-89
2022/03/15 08:06:47;;;;;;;33.97;18.92;;;3.70;94.80;;;;;;5053626;28;20541;-91
2022/03/15 08:09:14;;;;;;;40.83;22.02;;;3.70;94.70;;;;;;5071067;28;20071;-88
2022/03/15 08:11:41;;;;;;;35.25;18.77;;;3.70;94.80;;;;;;5054396;28;20017;-89
2022/03/15 08:14:07;;;;;;;35.55;21.20;;;3.80;94.80;;;;;;5070861;28;20055;-89
2022/03/15 08:16:33;;;;;;;30.42;17.65;;;3.80;94.80;;;;;;5053945;28;20029;-89
2022/03/15 08:18:58;;;;;;;35.72;19.45;;;3.90;94.70;;;;;;5070481;28;20037;-89
2022/03/15 08:21:28;;;;;;;36.47;20.10;;;4.00;94.50;;;;;;5053298;28;20075;-88
2022/03/15 08:23:54;;;;;;;33.93;19.30;;;4.00;94.40;;;;;;5070428;28;20079;-89
2022/03/15 08:26:20;;;;;;;34.85;19.63;;;4.00;94.50;;;;;;5070302;28;20029;-89
2022/03/15 08:28:48;;;;;;;103.93;34.95;;;4.10;94.40;;;;;;5069968;28;20103;-89
2022/03/15 08:31:14;;;;;;;56.90;24.85;;;4.20;94.30;;;;;;5070583;28;20082;-89
2022/03/15 08:33:40;;;;;;;29.50;17.25;;;4.30;94.30;;;;;;5070262;28;20021;-90
2022/03/15 08:36:06;;;;;;;42.97;22.42;;;4.30;94.00;;;;;;5070609;28;20031;-88
2022/03/15 08:38:32;;;;;;;32.17;17.60;;;4.30;94.10;;;;;;5053270;28;20112;-90
2022/03/15 08:40:58;;;;;;;21.05;13.48;;;4.30;94.10;;;;;;5036881;28;20440;-89
2022/03/15 08:43:30;;;;;;;34.40;17.77;;;4.30;93.90;;;;;;5070067;28;20052;-89
2022/03/15 08:45:56;;;;;;;42.20;20.40;;;4.40;93.90;;;;;;5070151;28;20031;-88
2022/03/15 08:48:22;;;;;;;29.33;16.75;;;4.40;93.90;;;;;;5037267;28;20041;-88
2022/03/15 08:50:47;;;;;;;22.63;14.40;;;4.50;93.80;;;;;;5069840;28;20091;-90
2022/03/15 08:53:13;;;;;;;33.72;17.73;;;4.50;93.80;;;;;;5036601;28;20151;-89
2022/03/15 08:55:39;;;;;;;27.15;15.23;;;4.50;93.90;;;;;;5053605;28;20021;-88
2022/03/15 08:58:05;;;;;;;29.20;16.33;;;4.60;93.60;;;;;;5069863;28;20029;-88
2022/03/15 09:00:31;;;;;;;23.40;14.25;;;4.70;93.50;;;;;;5070224;28;20029;-89
2022/03/15 09:02:57;;;;;;;27.33;14.75;;;4.70;93.30;;;;;;5069338;28;20383;-89
2022/03/15 09:05:23;;;;;;;26.13;15.18;;;4.80;92.90;;;;;;5054359;28;20032;-89
2022/03/15 09:07:53;;;;;;;26.60;15.20;;;4.80;93.00;;;;;;5024437;28;20048;-88
2022/03/15 09:10:20;;;;;;;29.07;15.80;;;4.80;93.00;;;;;;5036683;28;20136;-88
2022/03/15 09:12:47;;;;;;;26.98;16.42;;;4.90;93.00;;;;;;5054857;28;20066;-88
2022/03/15 09:15:13;;;;;;;25.75;14.38;;;4.90;93.10;;;;;;5056031;28;20112;-90
2022/03/15 09:17:45;;;;;;;25.65;14.35;;;4.90;92.70;;;;;;5074772;28;20029;-88
2022/03/15 09:20:11;;;;;;;25.65;14.55;;;4.90;92.60;;;;;;5056633;28;20119;-88
2022/03/15 09:22:37;;;;;;;25.00;15.02;;;5.00;92.50;;;;;;5072449;28;20111;-88
2022/03/15 09:25:04;;;;;;;24.27;15.18;;;5.10;92.30;;;;;;5072802;28;20103;-89
2022/03/15 09:27:30;;;;;;;26.92;16.20;;;5.20;92.10;;;;;;5056022;28;20119;-89
2022/03/15 09:29:56;;;;;;;29.05;17.02;;;5.20;91.90;;;;;;5056509;28;20052;-88
2022/03/15 09:32:22;;;;;;;28.48;16.08;;;5.30;91.80;;;;;;5056230;28;20111;-88
2022/03/15 09:34:48;;;;;;;26.52;15.60;;;5.30;91.70;;;;;;5056629;28;20025;-88
2022/03/15 09:37:13;;;;;;;23.02;13.77;;;5.40;91.60;;;;;;5055996;28;20059;-88
2022/03/15 09:39:39;;;;;;;25.50;14.95;;;5.40;91.30;;;;;;5072533;28;20544;-89
2022/03/15 09:42:07;;;;;;;24.05;14.20;;;5.40;91.40;;;;;;5056436;28;20078;-88
2022/03/15 09:44:38;;;;;;;23.38;13.90;;;5.50;91.40;;;;;;5039708;28;20032;-89
2022/03/15 09:47:06;;;;;;;21.35;13.88;;;5.50;91.10;;;;;;5072496;28;20025;-89
2022/03/15 09:49:33;;;;;;;23.27;14.02;;;5.60;90.70;;;;;;5056186;28;20024;-88
2022/03/15 09:51:59;;;;;;;23.08;13.35;;;5.60;90.80;;;;;;5055924;28;20028;-92
2022/03/15 09:54:26;;;;;;;20.83;13.30;;;5.60;90.60;;;;;;5072567;28;20073;-89
2022/03/15 09:56:53;;;;;;;24.77;13.35;;;5.70;90.80;;;;;;5055735;28;20496;-88
2022/03/15 09:59:22;;;;;;;23.27;12.93;;;5.70;90.50;;;;;;5073095;28;20106;-88
2022/03/15 10:01:50;;;;;;;21.52;14.35;;;5.80;90.30;;;;;;5072545;28;20033;-88
2022/03/15 10:04:17;;;;;;;25.35;14.70;;;5.90;90.10;;;;;;5055904;28;20024;-88
2022/03/15 10:06:43;;;;;;;27.95;18.65;;;6.00;89.70;;;;;;5049703;28;20045;-88
2022/03/15 10:09:09;;;;;;;24.77;14.40;;;6.00;89.90;;;;;;5036038;28;20032;-88
2022/03/15 10:11:36;;;;;;;27.70;14.30;;;6.10;89.80;;;;;;5052442;28;20468;-88
2022/03/15 10:14:04;;;;;;;24.08;14.15;;;6.10;89.60;;;;;;5036656;28;20047;-88
2022/03/15 10:16:35;;;;;;;21.33;13.18;;;6.10;89.30;;;;;;5056412;28;20021;-89
2022/03/15 10:19:02;;;;;;;24.05;13.98;;;6.20;89.50;;;;;;5056032;28;20112;-87
2022/03/15 10:21:46;;;;;;;29.63;15.90;;;6.30;88.90;;;;;;5056226;28;20036;-89
2022/03/15 10:24:23;;;;;;;19.52;12.45;;;6.30;88.90;;;;;;5058778;28;20074;-90
2022/03/15 10:26:51;;;;;;;20.92;12.95;;;6.30;87.80;;;;;;5055103;28;20025;-91
2022/03/15 10:29:18;;;;;;;23.45;13.55;;;6.30;88.10;;;;;;5076958;28;20078;-89
2022/03/15 10:31:45;;;;;;;22.63;12.43;;;6.30;87.60;;;;;;5042682;28;20028;-92
2022/03/15 10:34:23;;;;;;;19.60;12.45;;;6.20;87.30;;;;;;5059710;28;20471;-93
2022/03/15 10:36:54;;;;;;;25.00;15.00;;;6.30;86.40;;;;;;5060051;28;20031;-91
2022/03/15 10:39:20;;;;;;;23.65;13.90;;;6.30;86.30;;;;;;5058854;28;20119;-91
2022/03/15 10:41:52;;;;;;;26.67;16.17;;;6.30;86.20;;;;;;5059017;28;20028;-90
2022/03/15 10:44:39;;;;;;;24.80;16.38;;;6.30;86.50;;;;;;5058788;28;20025;-89
2022/03/15 10:47:13;;;;;;;20.35;12.10;;;6.30;86.30;;;;;;5058928;28;20360;-89
2022/03/15 10:49:55;;;;;;;24.15;14.35;;;6.30;86.90;;;;;;5061040;28;20025;-89
2022/03/15 10:52:44;;;;;;;22.00;12.35;;;6.30;86.90;;;;;;5058960;28;20021;-92
2022/03/15 10:55:22;;;;;;;20.92;12.50;;;6.30;86.40;;;;;;5059242;28;20020;-89
2022/03/15 10:57:54;;;;;;;17.48;11.63;;;6.40;86.70;;;;;;5059000;28;20032;-92
2022/03/15 11:00:24;;;;;;;22.55;12.52;;;6.40;85.90;;;;;;5058669;28;20612;-91
2022/03/15 11:02:53;;;;;;;18.00;11.25;;;6.40;86.40;;;;;;5058944;28;20056;-94
2022/03/15 11:05:24;;;;;;;18.77;11.98;;;6.40;86.00;;;;;;5058625;28;20041;-91
2022/03/15 11:07:50;;;;;;;17.75;11.80;;;6.50;86.40;;;;;;5073489;28;20094;-91
2022/03/15 11:10:16;;;;;;;21.17;12.25;;;6.50;86.90;;;;;;5078965;28;20470;-91
2022/03/15 11:13:02;;;;;;;20.42;12.40;;;6.50;86.70;;;;;;5078488;28;20518;-93
2022/03/15 11:15:33;;;;;;;23.23;10.93;;;6.50;86.20;;;;;;5078806;28;20054;-91
2022/03/15 11:18:04;;;;;;;16.67;11.25;;;6.60;85.30;;;;;;5078917;28;20537;-90
2022/03/15 11:20:35;;;;;;;17.73;10.73;;;6.60;85.80;;;;;;5078910;28;20070;-91
2022/03/15 11:23:02;;;;;;;19.08;11.18;;;6.60;85.70;;;;;;5078342;28;20024;-91
2022/03/15 11:25:40;;;;;;;18.98;11.65;;;6.60;85.70;;;;;;5078143;28;20028;-92
2022/03/15 11:28:15;;;;;;;16.85;11.73;;;6.70;85.20;;;;;;5096742;28;20059;-90
2022/03/15 11:30:43;;;;;;;19.20;12.30;;;6.70;85.00;;;;;;5074558;28;20559;-89
2022/03/15 11:33:11;;;;;;;20.05;11.38;;;6.70;85.40;;;;;;5077792;28;20024;-90
2022/03/15 11:35:39;;;;;;;18.02;10.93;;;6.70;85.00;;;;;;5078256;28;20020;-90
2022/03/15 11:38:09;;;;;;;15.90;10.35;;;6.80;85.20;;;;;;5078065;28;20028;-90
2022/03/15 11:40:35;;;;;;;17.90;10.63;;;6.90;84.10;;;;;;5077938;28;20043;-90
2022/03/15 11:43:38;;;;;;;15.35;10.27;;;6.90;84.40;;;;;;5077619;28;20077;-90
2022/03/15 11:46:13;;;;;;;17.80;9.65;;;6.90;84.10;;;;;;5095759;28;20024;-91
2022/03/15 11:49:09;;;;;;;13.48;9.27;;;7.00;83.40;;;;;;5077710;28;20023;-95
2022/03/15 11:51:55;;;;;;;15.60;9.40;;;7.00;82.80;;;;;;5071249;28;20510;-89
2022/03/15 11:54:44;;;;;;;16.38;9.52;;;7.10;83.00;;;;;;5078187;28;20016;-95
2022/03/15 11:57:27;;;;;;;19.67;13.07;;;7.00;83.30;;;;;;5077445;28;20413;-95
2022/03/15 11:59:55;;;;;;;14.68;8.98;;;7.10;83.70;;;;;;5078121;28;20543;-95
2022/03/15 12:02:30;;;;;;;14.70;8.77;;;7.10;83.00;;;;;;5077841;28;20032;-92
2022/03/15 12:04:57;;;;;;;14.02;8.73;;;7.20;82.90;;;;;;5077821;28;20036;-91
2022/03/15 12:07:45;;;;;;;14.20;8.90;;;7.20;82.60;;;;;;5065852;28;20040;-92
2022/03/15 12:10:20;;;;;;;16.17;8.35;;;7.40;82.60;;;;;;5056444;28;20056;-92
2022/03/15 12:12:47;;;;;;;16.73;9.40;;;7.30;81.90;;;;;;5056533;28;20048;-92
2022/03/15 12:15:16;;;;;;;16.23;8.93;;;7.40;82.30;;;;;;5056056;28;20415;-91
2022/03/15 12:17:43;;;;;;;15.23;9.10;;;7.50;81.80;;;;;;5055489;28;20115;-92
2022/03/15 12:20:14;;;;;;;13.90;9.23;;;7.50;81.40;;;;;;5055971;28;20032;-92
2022/03/15 12:22:41;;;;;;;13.63;9.50;;;7.50;81.00;;;;;;5056469;28;20032;-92
2022/03/15 12:25:13;;;;;;;12.90;7.82;;;7.60;80.90;;;;;;5056444;28;20035;-92
2022/03/15 12:27:46;;;;;;;24.05;11.73;;;7.60;80.70;;;;;;5056525;28;20475;-93
2022/03/15 12:30:18;;;;;;;15.38;9.35;;;7.60;81.10;;;;;;5056208;28;20063;-92
2022/03/15 12:32:51;;;;;;;20.23;11.23;;;7.60;81.90;;;;;;5056177;28;20020;-92
2022/03/15 12:35:17;;;;;;;22.45;12.18;;;7.70;82.00;;;;;;5056709;28;20059;-93
2022/03/15 12:37:42;;;;;;;15.15;9.52;;;7.70;82.00;;;;;;5056208;28;20044;-93
2022/03/15 12:40:10;;;;;;;11.15;7.25;;;7.80;82.30;;;;;;5056024;28;20024;-93
2022/03/15 12:42:38;;;;;;;10.85;7.53;;;8.00;82.00;;;;;;5055963;28;20082;-93
2022/03/15 12:45:07;;;;;;;14.02;8.32;;;8.10;81.80;;;;;;5056149;28;20077;-92
2022/03/15 12:47:38;;;;;;;17.08;9.07;;;8.20;81.60;;;;;;5056323;28;20106;-91
2022/03/15 12:50:22;;;;;;;10.48;7.65;;;8.30;82.10;;;;;;5058037;28;20129;-93
2022/03/15 12:52:49;;;;;;;13.13;8.50;;;8.50;82.70;;;;;;5056819;28;20036;-93